Terminal Aerodrome Forecast
Issued by NWS

Home | Current Version | Previous Version | Graphics & Text | Print | Product List | Glossary On
Versions: 1 2 3 4 5 6 7 8 9 10 11 12 13 14
157
FTUS43 KBIS 191727
TAFDIK
TAF
KDIK 191727Z 1918/2018 VRB05KT P6SM SCT025
     FM192200 11012KT P6SM SCT040
     FM200100 11009KT P6SM SCT050
     FM200600 13008KT P6SM BKN100
     FM201300 12009KT P6SM BKN030=

USA.gov is the U.S. government's official web portal to all federal, state and local government web resources and services.